Bingham Canyon, Utah
Current Conditions -  °F | °C
As of 12:34 AM on Sunday 23 Nov 2014 (Local Time) from KSLC Reporting Station
Broken Clouds Broken Clouds  
Wind Chill: 29°   Ceiling: 4700
Heat Index: 39°   Visibility: 10mi
Dew Point: 30°   Wind: 22mph
Humidity: 70%   Direction: 290°WNW
Pressure: 29.95"   Gusts: 31mph
Location:  40.57°N, 112.1°W
Report Text: KSLC 230734Z 29019G27KT 10SM SCT030 BKN047 BKN060 04/M01 A2995 RMK AO2 PK WND 28027/0720 RAE21 SH DSNT NE-SE P0000 T00391011
Loading
Personal Weather Stations






























Interactive Weather Map New forecast layout! Learn more

10-Day Weather Forecast

Advertisements
Track Severe Weather on mobile